الصفحة الرئيسية
METAR-TAF:

METAR-TAF

مطار :

طشقند, أوزبكستان

دائرة عرض: 41-16N, خط طول: 069-16E, ارتفاع: 489 متر

مراقبة الطقس الحالي

تاريخ ووقت الإصدار 23 دقيقة قبل الساعة 22:30UTC
ريح 4 عقدة من الشرق/الشمال الشرقي
درجة الحرارة 11°درجة مئوية
الرطوبة 71%
ضغط 1021 hPa
الرؤية 10 كم أو أكثر
الغيوم لا تقل 1500 م ولا وجود لمزنة ركامية السحاب الأسود

METAR: UTTT 262230Z 06004KT CAVOK 11/06 Q1021 R08R/CLRD70 NOSIG

زمن: 03:53 (22:53 UTC)

توقعات

تاريخ ووقت الإصدار 5ساعات و 53 دقيقة قبل الساعة 17:00UTC
التوقعات صالحة من26 الساعة 18 UTC إلى 27 الساعة 18 UTC
ريح 12 عقدة من الشمال الشرقي
الرؤية: 7000 متر

TAF: UTTT 261700Z 2618/2718 05012KT 7000 NSC

أرصاد الطقس والتوقعات من أكثر من 4000 مطار (تقارير الطقس للمطار METAR والتنبؤ بالطقس بالمطارTAF).

المحطات المتاحة هي النقط الصفراء والحمراء على الخريطة.

حرك المؤشر فوق النقطة لمعرفة اسم المحطة.

ثم انقر لمعرفة أرصاد وتوقعات الطقس.

لتغيير الخارطة: اضغط على الأزرار الخضراء مع رمز الصليب الأسود للتكبير. على الزر الأخضر مع شرطة للتصغير، أو على الأسهم الخضراء للخرائط المجاورة.


METAR-TAF: